createdAt,value
2019-06-20T00:00:20.491Z,3.13
2019-06-20T00:03:02.752Z,3.07
2019-06-20T00:05:44.116Z,2.93
2019-06-20T00:08:25.504Z,3.50
2019-06-20T00:11:08.031Z,2.53
2019-06-20T00:13:50.606Z,3.10
2019-06-20T00:16:32.495Z,2.57
2019-06-20T00:19:14.825Z,2.60
2019-06-20T00:21:56.730Z,2.40
2019-06-20T00:24:38.390Z,2.57
2019-06-20T00:27:19.876Z,3.07
2019-06-20T00:30:01.652Z,2.73
2019-06-20T00:32:43.410Z,2.80
2019-06-20T00:35:25.734Z,2.90
2019-06-20T00:38:07.670Z,3.13
2019-06-20T00:40:49.843Z,2.63
2019-06-20T00:43:31.426Z,2.90
2019-06-20T00:46:12.936Z,2.87
2019-06-20T00:48:54.395Z,2.80
2019-06-20T00:51:35.722Z,3.10
2019-06-20T00:54:17.199Z,3.27
2019-06-20T00:56:59.403Z,3.93
2019-06-20T00:59:41.185Z,3.60
2019-06-20T01:02:22.904Z,3.40
2019-06-20T01:05:04.902Z,4.10
2019-06-20T01:07:46.393Z,4.10
2019-06-20T01:10:28.088Z,4.03
2019-06-20T01:13:10.300Z,4.00
2019-06-20T01:15:52.509Z,4.30
2019-06-20T01:18:34.955Z,3.80
2019-06-20T01:21:16.674Z,3.57
2019-06-20T01:23:58.275Z,4.03
2019-06-20T01:26:40.105Z,4.10
2019-06-20T01:29:20.636Z,3.63
2019-06-20T01:32:09.835Z,3.40
2019-06-20T01:34:59.081Z,3.77
2019-06-20T01:37:41.262Z,4.03
2019-06-20T01:40:23.145Z,3.50
2019-06-20T01:43:05.278Z,3.77
2019-06-20T01:45:47.795Z,3.97
2019-06-20T01:48:30.145Z,4.10
2019-06-20T01:51:12.649Z,3.77
2019-06-20T01:53:54.500Z,4.30
2019-06-20T01:56:36.867Z,3.70
2019-06-20T01:59:19.053Z,4.03
2019-06-20T02:02:01.172Z,4.03
2019-06-20T02:04:43.127Z,4.07
2019-06-20T02:07:28.115Z,4.37
2019-06-20T02:10:09.440Z,3.90
2019-06-20T02:12:51.557Z,4.33
2019-06-20T02:15:33.842Z,4.20
2019-06-20T02:18:16.288Z,4.40
2019-06-20T02:20:58.565Z,4.10
2019-06-20T02:23:40.168Z,4.13
2019-06-20T02:26:21.891Z,4.17
2019-06-20T02:29:04.092Z,3.73
2019-06-20T02:31:44.650Z,3.70
2019-06-20T02:34:34.121Z,3.87
2019-06-20T02:37:23.324Z,4.40
2019-06-20T02:40:12.505Z,3.83
2019-06-20T02:43:01.679Z,3.97
2019-06-20T02:45:50.952Z,4.57
2019-06-20T02:48:40.187Z,4.33
2019-06-20T02:51:29.852Z,4.00
2019-06-20T02:54:19.142Z,4.53
2019-06-20T02:57:08.404Z,3.87
2019-06-20T02:59:57.515Z,4.00
2019-06-20T03:02:46.713Z,3.97
2019-06-20T03:05:35.896Z,4.57
2019-06-20T03:11:39.680Z,4.40
2019-06-20T03:14:41.776Z,5.47
2019-06-20T03:17:39.554Z,4.50
2019-06-20T03:20:29.048Z,4.40
2019-06-20T03:23:18.488Z,4.40
2019-06-20T03:26:07.584Z,4.10
2019-06-20T03:28:57.052Z,4.50
2019-06-20T03:31:46.195Z,4.93
2019-06-20T03:34:35.319Z,4.33
2019-06-20T03:37:17.068Z,4.60
2019-06-20T03:39:59.481Z,5.63
2019-06-20T03:42:41.239Z,5.60
2019-06-20T03:45:22.694Z,6.00
2019-06-20T03:48:04.773Z,5.40
2019-06-20T03:50:47.238Z,5.90
2019-06-20T03:53:29.266Z,5.50
2019-06-20T03:56:10.981Z,6.10
2019-06-20T03:58:52.690Z,6.27
2019-06-20T04:01:35.153Z,6.40
2019-06-20T04:04:17.473Z,6.40
2019-06-20T04:06:58.899Z,6.20
2019-06-20T04:09:41.186Z,5.67
2019-06-20T04:12:23.279Z,6.33
2019-06-20T04:15:18.020Z,5.90
2019-06-20T04:17:48.912Z,5.53
2019-06-20T04:20:30.756Z,5.80
2019-06-20T04:23:12.959Z,5.50
2019-06-20T04:25:55.307Z,4.90
2019-06-20T04:28:37.183Z,4.47
2019-06-20T04:31:19.285Z,4.90
2019-06-20T04:34:01.362Z,4.90
2019-06-20T04:36:42.916Z,5.73
2019-06-20T04:39:25.188Z,5.20
2019-06-20T04:42:06.756Z,5.40
2019-06-20T04:44:50.114Z,4.90
2019-06-20T04:47:32.129Z,5.27
2019-06-20T04:50:14.331Z,5.80
2019-06-20T04:52:56.608Z,6.20
2019-06-20T04:55:38.766Z,5.60
2019-06-20T04:58:20.972Z,5.97
2019-06-20T05:01:03.348Z,5.60
2019-06-20T05:03:45.416Z,5.80
2019-06-20T05:06:28.210Z,5.67
2019-06-20T05:09:09.941Z,6.03
2019-06-20T05:11:51.604Z,6.00
2019-06-20T05:14:34.198Z,6.57
2019-06-20T05:17:16.273Z,6.47
2019-06-20T05:19:58.528Z,6.40
2019-06-20T05:22:39.998Z,7.10
2019-06-20T05:25:21.645Z,5.73
2019-06-20T05:28:03.800Z,6.17
2019-06-20T05:30:45.742Z,5.33
2019-06-20T05:33:26.308Z,4.70
2019-06-20T05:36:08.042Z,5.43
2019-06-20T05:38:49.611Z,4.60
2019-06-20T05:41:31.332Z,3.77
2019-06-20T05:44:13.460Z,3.97
2019-06-20T05:47:11.461Z,4.27
2019-06-20T05:49:39.715Z,3.70
2019-06-20T05:52:22.116Z,3.97
2019-06-20T05:55:04.174Z,3.60
2019-06-20T05:57:46.398Z,3.70
2019-06-20T06:00:28.630Z,3.63
2019-06-20T06:03:13.664Z,3.67
2019-06-20T06:05:55.230Z,3.90
2019-06-20T06:08:37.585Z,3.77
2019-06-20T06:11:19.150Z,4.40
2019-06-20T06:14:01.093Z,3.90
2019-06-20T06:16:44.270Z,4.00
2019-06-20T06:19:25.890Z,4.30
2019-06-20T06:22:07.409Z,3.80
2019-06-20T06:24:49.744Z,3.70
2019-06-20T06:27:31.243Z,4.10
2019-06-20T06:30:12.871Z,3.90
2019-06-20T06:32:55.483Z,3.73
2019-06-20T06:35:37.257Z,3.90
2019-06-20T06:38:22.168Z,4.40
2019-06-20T06:41:02.730Z,3.83
2019-06-20T06:43:44.457Z,3.70
2019-06-20T06:46:42.510Z,3.73
2019-06-20T06:49:10.572Z,3.50
2019-06-20T06:51:52.995Z,4.23
2019-06-20T06:54:34.620Z,3.80
2019-06-20T06:57:16.693Z,4.10
2019-06-20T06:59:58.879Z,3.90
2019-06-20T07:02:40.770Z,4.10
2019-06-20T07:05:27.347Z,3.60
2019-06-20T07:08:28.932Z,4.20
2019-06-20T07:11:10.394Z,4.20
2019-06-20T07:13:51.836Z,4.03
2019-06-20T07:16:33.418Z,4.17
2019-06-20T07:19:15.311Z,4.57
2019-06-20T07:21:57.056Z,4.10
2019-06-20T07:24:38.832Z,4.17
2019-06-20T07:27:20.221Z,4.67
2019-06-20T07:30:02.135Z,4.37
2019-06-20T07:32:43.625Z,4.20
2019-06-20T07:35:25.946Z,4.10
2019-06-20T07:38:07.410Z,4.10
2019-06-20T07:40:49.718Z,4.50
2019-06-20T07:43:31.943Z,3.90
2019-06-20T07:46:13.604Z,3.87
2019-06-20T07:48:55.809Z,4.27
2019-06-20T07:51:26.265Z,4.00
2019-06-20T07:53:56.348Z,3.77
2019-06-20T07:56:26.880Z,4.23
2019-06-20T07:58:56.989Z,3.70
2019-06-20T08:01:27.119Z,4.10
2019-06-20T08:03:57.624Z,3.63
2019-06-20T08:06:27.972Z,3.70
2019-06-20T08:08:58.273Z,4.10
2019-06-20T08:11:29.390Z,4.30
2019-06-20T08:13:59.670Z,4.43
2019-06-20T08:16:29.814Z,4.33
2019-06-20T08:19:00.043Z,3.80
2019-06-20T08:21:30.572Z,3.73
2019-06-20T08:24:00.706Z,4.20
2019-06-20T08:26:31.494Z,4.27
2019-06-20T08:29:16.257Z,4.00
2019-06-20T08:31:33.989Z,4.37
2019-06-20T08:34:04.496Z,3.83
2019-06-20T08:36:34.802Z,3.60
2019-06-20T08:39:09.104Z,3.63
2019-06-20T08:41:39.742Z,3.63
2019-06-20T08:44:10.005Z,4.10
2019-06-20T08:46:40.112Z,3.90
2019-06-20T08:49:10.160Z,3.50
2019-06-20T08:51:40.542Z,3.37
2019-06-20T08:54:10.792Z,3.00
2019-06-20T08:56:41.272Z,3.03
2019-06-20T08:59:23.821Z,3.20
2019-06-20T09:01:43.912Z,2.70
2019-06-20T09:04:14.264Z,2.83
2019-06-20T09:06:44.647Z,3.07
2019-06-20T09:09:14.865Z,2.67
2019-06-20T09:11:44.992Z,3.10
2019-06-20T09:14:16.542Z,3.00
2019-06-20T09:16:46.631Z,3.27
2019-06-20T09:19:16.738Z,2.70
2019-06-20T09:21:47.178Z,3.07
2019-06-20T09:24:17.593Z,3.37
2019-06-20T09:26:47.698Z,3.10
2019-06-20T09:29:18.081Z,3.80
2019-06-20T09:31:49.336Z,3.97
2019-06-20T09:34:19.836Z,4.93
2019-06-20T09:36:51.936Z,4.70
2019-06-20T09:39:21.825Z,4.57
2019-06-20T09:41:52.696Z,4.10
2019-06-20T09:44:23.208Z,3.70
2019-06-20T09:46:53.957Z,4.50
2019-06-20T09:49:24.125Z,3.90
2019-06-20T09:51:54.212Z,3.70
2019-06-20T09:54:24.409Z,3.33
2019-06-20T09:56:56.359Z,3.47
2019-06-20T09:59:28.022Z,3.07
2019-06-20T10:01:58.816Z,2.70
2019-06-20T10:04:28.969Z,3.00
2019-06-20T10:06:58.979Z,3.20
2019-06-20T10:09:29.163Z,3.20
2019-06-20T10:11:59.163Z,3.10
2019-06-20T10:14:29.267Z,3.07
2019-06-20T10:16:59.397Z,3.07
2019-06-20T10:19:29.526Z,3.20
2019-06-20T10:21:59.648Z,3.00
2019-06-20T10:24:29.752Z,2.77
2019-06-20T10:26:59.867Z,3.00
2019-06-20T10:29:30.381Z,3.00
2019-06-20T10:32:00.478Z,3.10
2019-06-20T10:34:31.248Z,2.73
2019-06-20T10:37:01.523Z,2.73
2019-06-20T10:39:31.674Z,2.40
2019-06-20T10:42:01.682Z,2.50
2019-06-20T10:44:32.032Z,2.70
2019-06-20T10:47:02.160Z,2.57
2019-06-20T10:49:32.449Z,2.63
2019-06-20T10:52:02.457Z,2.67
2019-06-20T10:54:32.626Z,2.23
2019-06-20T10:57:02.822Z,2.50
2019-06-20T10:59:32.889Z,2.47
2019-06-20T11:02:03.129Z,2.57
2019-06-20T11:04:33.148Z,2.43
2019-06-20T11:07:03.330Z,2.70
2019-06-20T11:09:33.514Z,2.10
2019-06-20T11:12:03.575Z,2.30
2019-06-20T11:14:33.958Z,2.13
2019-06-20T11:17:04.282Z,2.30
2019-06-20T11:19:34.728Z,2.27
2019-06-20T11:22:04.807Z,2.00
2019-06-20T11:24:34.839Z,2.30
2019-06-20T11:27:05.007Z,2.50
2019-06-20T11:29:35.135Z,2.37
2019-06-20T11:32:05.634Z,2.53
2019-06-20T11:34:37.672Z,2.27
2019-06-20T11:37:07.907Z,2.20
2019-06-20T11:39:38.908Z,2.43
2019-06-20T11:42:09.097Z,2.53
2019-06-20T11:44:39.214Z,2.57
2019-06-20T11:47:09.616Z,2.60
2019-06-20T11:49:40.411Z,2.20
2019-06-20T11:52:10.591Z,2.37
2019-06-20T11:54:40.722Z,2.10
2019-06-20T11:57:10.870Z,2.80
2019-06-20T11:59:40.960Z,2.40
2019-06-20T12:02:11.134Z,2.30
2019-06-20T12:04:42.706Z,2.20
2019-06-20T12:07:13.186Z,2.10
2019-06-20T12:09:44.234Z,2.10
2019-06-20T12:12:14.420Z,1.80
2019-06-20T12:14:44.544Z,2.30
2019-06-20T12:17:14.766Z,1.90
2019-06-20T12:19:44.824Z,2.50
2019-06-20T12:22:14.872Z,2.50
2019-06-20T12:24:44.977Z,2.20
2019-06-20T12:27:15.088Z,2.33
2019-06-20T12:29:46.520Z,2.50
2019-06-20T12:32:20.029Z,2.50
2019-06-20T12:34:50.267Z,2.53
2019-06-20T12:37:20.373Z,2.10
2019-06-20T12:39:50.751Z,2.40
2019-06-20T12:42:20.921Z,1.70
2019-06-20T12:44:51.118Z,2.13
2019-06-20T12:47:21.937Z,2.23
2019-06-20T12:49:52.041Z,1.87
2019-06-20T12:52:23.114Z,1.80
2019-06-20T12:54:53.108Z,1.87
2019-06-20T12:57:23.172Z,1.80
2019-06-20T12:59:53.399Z,1.90
2019-06-20T13:02:23.469Z,2.03
2019-06-20T13:04:53.543Z,2.17
2019-06-20T13:07:23.824Z,1.63
2019-06-20T13:09:54.147Z,2.10
2019-06-20T13:12:24.281Z,2.07
2019-06-20T13:14:54.514Z,2.10
2019-06-20T13:17:24.933Z,2.00
2019-06-20T13:19:55.041Z,1.97
2019-06-20T13:22:25.682Z,2.20
2019-06-20T13:24:55.822Z,2.10
2019-06-20T13:27:25.822Z,2.60
2019-06-20T13:29:56.483Z,2.27
2019-06-20T13:32:26.713Z,2.00
2019-06-20T13:34:56.821Z,1.80
2019-06-20T13:37:26.950Z,2.17
2019-06-20T13:39:57.104Z,2.57
2019-06-20T13:42:27.440Z,1.87
2019-06-20T13:44:57.679Z,2.07
2019-06-20T13:47:27.894Z,2.00
2019-06-20T13:49:58.145Z,1.70
2019-06-20T13:52:28.305Z,1.70
2019-06-20T13:54:58.364Z,1.90
2019-06-20T13:57:28.509Z,2.20
2019-06-20T13:59:58.639Z,2.00
2019-06-20T14:02:28.775Z,2.13
2019-06-20T14:04:58.929Z,2.20
2019-06-20T14:07:29.378Z,2.03
2019-06-20T14:09:59.481Z,1.80
2019-06-20T14:12:29.628Z,2.20
2019-06-20T14:14:59.737Z,2.30
2019-06-20T14:17:30.077Z,1.90
2019-06-20T14:20:01.663Z,2.10
2019-06-20T14:22:31.853Z,2.30
2019-06-20T14:25:02.636Z,1.90
2019-06-20T14:27:35.089Z,1.87
2019-06-20T14:30:06.100Z,2.10
2019-06-20T14:32:36.233Z,1.97
2019-06-20T14:35:07.789Z,2.30
2019-06-20T14:37:38.043Z,2.20
2019-06-20T14:40:08.920Z,1.87
2019-06-20T14:42:39.095Z,1.87
2019-06-20T14:45:09.718Z,2.13
2019-06-20T14:47:39.834Z,1.97
2019-06-20T14:50:10.785Z,1.80
2019-06-20T14:52:40.808Z,1.93
2019-06-20T14:55:11.404Z,2.07
2019-06-20T14:57:44.643Z,2.13
2019-06-20T15:00:14.472Z,1.90
2019-06-20T15:02:45.735Z,2.07
2019-06-20T15:05:17.592Z,1.70
2019-06-20T15:07:49.571Z,2.37
2019-06-20T15:10:20.181Z,2.20
2019-06-20T15:12:52.227Z,2.03
2019-06-20T15:15:23.580Z,2.10
2019-06-20T15:17:55.868Z,2.50
2019-06-20T15:20:25.996Z,2.20
2019-06-20T15:22:56.616Z,2.00
2019-06-20T15:25:26.882Z,2.07
2019-06-20T15:27:57.442Z,2.60
2019-06-20T15:30:27.575Z,2.40
2019-06-20T15:33:09.070Z,2.00
2019-06-20T15:35:30.236Z,2.40
2019-06-20T15:38:00.606Z,1.90
2019-06-20T15:40:31.351Z,2.03
2019-06-20T15:43:01.655Z,2.40
2019-06-20T15:45:32.142Z,2.00
2019-06-20T15:48:02.465Z,2.67
2019-06-20T15:50:33.491Z,2.53
2019-06-20T15:53:03.977Z,2.53
2019-06-20T15:55:34.084Z,2.13
2019-06-20T15:58:04.159Z,1.80
2019-06-20T16:00:34.338Z,2.00
2019-06-20T16:03:10.049Z,2.75
2019-06-20T16:05:36.341Z,2.47
2019-06-20T16:08:06.757Z,2.50
2019-06-20T16:10:37.778Z,3.07
2019-06-20T16:13:07.890Z,3.13
2019-06-20T16:15:38.319Z,2.83
2019-06-20T16:18:08.809Z,2.40
2019-06-20T16:20:39.078Z,1.90
2019-06-20T16:23:09.176Z,1.93
2019-06-20T16:25:39.732Z,2.23
2019-06-20T16:28:09.875Z,2.37
2019-06-20T16:30:40.236Z,2.10
2019-06-20T16:33:24.185Z,2.02
2019-06-20T16:35:42.552Z,1.90
2019-06-20T16:38:13.053Z,2.70
2019-06-20T16:40:45.643Z,2.10
2019-06-20T16:43:15.742Z,2.30
2019-06-20T16:45:45.925Z,2.17
2019-06-20T16:48:16.246Z,2.20
2019-06-20T16:50:46.492Z,2.20
2019-06-20T16:53:16.984Z,1.80
2019-06-20T16:55:47.361Z,2.60
2019-06-20T16:58:17.793Z,2.33
2019-06-20T17:00:48.265Z,2.50
2019-06-20T17:03:18.762Z,2.03
2019-06-20T17:05:48.861Z,2.03
2019-06-20T17:08:19.005Z,2.10
2019-06-20T17:10:49.119Z,2.10
2019-06-20T17:13:19.575Z,1.93
2019-06-20T17:15:50.585Z,2.37
2019-06-20T17:18:20.668Z,2.23
2019-06-20T17:20:50.926Z,2.07
2019-06-20T17:23:20.983Z,1.93
2019-06-20T17:25:51.058Z,2.10
2019-06-20T17:28:21.467Z,2.17
2019-06-20T17:30:51.735Z,2.73
2019-06-20T17:33:22.240Z,2.77
2019-06-20T17:35:52.737Z,2.60
2019-06-20T17:38:22.949Z,2.47
2019-06-20T17:40:53.456Z,2.23
2019-06-20T17:43:23.569Z,2.10
2019-06-20T17:45:53.886Z,2.33
2019-06-20T17:48:24.352Z,2.07
2019-06-20T17:50:54.503Z,2.67
2019-06-20T17:53:24.576Z,2.37
2019-06-20T17:55:54.980Z,2.43
2019-06-20T17:58:25.037Z,2.53
2019-06-20T18:00:55.279Z,2.37
2019-06-20T18:03:25.741Z,2.67
2019-06-20T18:05:55.882Z,3.00
2019-06-20T18:08:26.872Z,2.83
2019-06-20T18:10:57.303Z,2.20
2019-06-20T18:13:27.767Z,2.30
2019-06-20T18:15:57.864Z,2.60
2019-06-20T18:18:28.200Z,3.13
2019-06-20T18:20:58.874Z,2.40
2019-06-20T18:23:29.317Z,3.00
2019-06-20T18:25:59.604Z,2.70
2019-06-20T18:28:29.860Z,2.63
2019-06-20T18:31:00.936Z,2.60
2019-06-20T18:33:33.130Z,2.70
2019-06-20T18:36:05.234Z,2.70
2019-06-20T18:38:35.844Z,3.37
2019-06-20T18:41:06.960Z,2.97
2019-06-20T18:43:37.951Z,2.80
2019-06-20T18:46:08.316Z,2.90
2019-06-20T18:48:39.169Z,3.20
2019-06-20T18:51:09.919Z,3.20
2019-06-20T18:53:40.701Z,2.70
2019-06-20T18:56:11.380Z,3.00
2019-06-20T18:58:42.362Z,2.90
2019-06-20T19:01:13.366Z,2.47
2019-06-20T19:03:44.737Z,2.90
2019-06-20T19:06:15.880Z,3.30
2019-06-20T19:08:46.918Z,2.87
2019-06-20T19:11:18.053Z,3.70
2019-06-20T19:13:49.492Z,2.87
2019-06-20T19:16:19.922Z,3.03
2019-06-20T19:18:50.067Z,3.30
2019-06-20T19:21:20.143Z,3.43
2019-06-20T19:23:50.380Z,2.10
2019-06-20T19:26:20.488Z,1.70
2019-06-20T19:28:51.267Z,1.40
2019-06-20T19:31:22.029Z,1.23
2019-06-20T19:33:52.265Z,3.33
2019-06-20T19:36:22.478Z,2.30
2019-06-20T19:38:52.502Z,1.87
2019-06-20T19:41:22.569Z,1.87
2019-06-20T19:43:52.755Z,2.03
2019-06-20T19:46:22.892Z,2.07
2019-06-20T19:48:53.241Z,2.10
2019-06-20T19:51:23.282Z,2.43
2019-06-20T19:54:12.602Z,2.27
2019-06-20T19:57:01.826Z,1.60
2019-06-20T19:59:51.295Z,1.70
2019-06-20T20:02:40.840Z,1.70
2019-06-20T20:05:30.062Z,2.27
2019-06-20T20:08:19.472Z,1.73
2019-06-20T20:11:30.369Z,1.90
2019-06-20T20:14:19.659Z,1.43
2019-06-20T20:17:08.947Z,1.70
2019-06-20T20:19:58.142Z,1.60
2019-06-20T20:22:47.478Z,1.60
2019-06-20T20:25:38.270Z,1.63
2019-06-20T20:28:27.736Z,1.30
2019-06-20T20:37:39.306Z,1.20
2019-06-20T20:40:20.964Z,1.10
2019-06-20T20:43:02.575Z,1.10
2019-06-20T20:45:44.090Z,1.20
2019-06-20T20:48:26.582Z,1.20
2019-06-20T20:51:08.222Z,1.17
2019-06-20T20:53:49.888Z,1.40
2019-06-20T20:56:31.616Z,1.00
2019-06-20T20:59:13.386Z,1.00
2019-06-20T21:01:55.271Z,1.10
2019-06-20T21:04:37.187Z,0.90
2019-06-20T21:07:18.919Z,1.63
2019-06-20T21:09:59.721Z,1.40
2019-06-20T21:12:48.909Z,1.53
2019-06-20T21:18:52.732Z,1.33
2019-06-20T21:21:42.092Z,1.17
2019-06-20T21:24:32.906Z,1.50
2019-06-20T21:27:22.141Z,1.33
2019-06-20T21:30:11.915Z,1.40
2019-06-20T21:33:01.432Z,1.10
2019-06-20T21:39:06.849Z,1.43
2019-06-20T21:41:49.113Z,1.47
2019-06-20T21:44:30.521Z,1.63
2019-06-20T21:47:12.131Z,1.70
2019-06-20T21:49:54.467Z,1.83
2019-06-20T21:52:37.177Z,2.57
2019-06-20T21:55:19.366Z,2.30
2019-06-20T21:58:01.752Z,2.43
2019-06-20T22:00:45.453Z,2.30
2019-06-20T22:03:27.369Z,1.77
2019-06-20T22:06:22.931Z,1.90
2019-06-20T22:08:52.250Z,1.90
2019-06-20T22:11:33.716Z,1.60
2019-06-20T22:14:16.110Z,1.53
2019-06-20T22:17:00.606Z,1.30
2019-06-20T22:19:42.523Z,1.70
2019-06-20T22:22:24.742Z,1.40
2019-06-20T22:25:06.585Z,1.50
2019-06-20T22:27:48.498Z,2.30
2019-06-20T22:30:30.734Z,2.27
2019-06-20T22:33:12.634Z,1.87
2019-06-20T22:35:54.104Z,1.70
2019-06-20T22:38:36.383Z,1.50
2019-06-20T22:41:18.433Z,1.83
2019-06-20T22:44:00.692Z,1.83
2019-06-20T22:46:42.349Z,1.93
2019-06-20T22:49:24.575Z,1.77
2019-06-20T22:52:06.198Z,1.93
2019-06-20T22:54:48.382Z,2.33
2019-06-20T22:57:30.806Z,2.10
2019-06-20T23:00:12.533Z,1.97
2019-06-20T23:02:54.032Z,1.90
2019-06-20T23:05:36.555Z,1.97
2019-06-20T23:08:18.813Z,2.20
2019-06-20T23:11:01.305Z,2.10
2019-06-20T23:13:43.386Z,3.00
2019-06-20T23:16:25.609Z,2.67
2019-06-20T23:19:07.777Z,2.80
2019-06-20T23:21:49.425Z,2.80
2019-06-20T23:24:31.739Z,3.20
2019-06-20T23:27:14.312Z,3.30
2019-06-20T23:29:56.524Z,2.47
2019-06-20T23:32:38.515Z,2.90
2019-06-20T23:35:20.330Z,2.93
2019-06-20T23:38:01.782Z,3.10
2019-06-20T23:40:43.367Z,2.87
2019-06-20T23:43:24.730Z,2.93
2019-06-20T23:46:06.235Z,3.27
2019-06-20T23:48:48.040Z,2.83
2019-06-20T23:51:31.364Z,2.90
2019-06-20T23:54:13.660Z,3.70
2019-06-20T23:56:55.515Z,3.10
2019-06-20T23:59:37.336Z,2.67
